sensor_id;sensor_type;location;lat;lon;timestamp;P1;durP1;ratioP1;P2;durP2;ratioP2
65665;SDS011;52365;47.464;18.976;2023-01-31T00:00:22;6.10;;;4.10;;
65665;SDS011;52365;47.464;18.976;2023-01-31T00:01:09;6.20;;;4.40;;
65665;SDS011;52365;47.464;18.976;2023-01-31T00:01:49;6.93;;;4.35;;
65665;SDS011;52365;47.464;18.976;2023-01-31T00:02:25;6.57;;;4.35;;
65665;SDS011;52365;47.464;18.976;2023-01-31T00:03:01;7.57;;;4.37;;
65665;SDS011;52365;47.464;18.976;2023-01-31T00:03:37;6.37;;;3.75;;
65665;SDS011;52365;47.464;18.976;2023-01-31T00:04:14;7.13;;;4.10;;
65665;SDS011;52365;47.464;18.976;2023-01-31T00:04:50;6.50;;;3.83;;
65665;SDS011;52365;47.464;18.976;2023-01-31T00:05:26;7.87;;;4.57;;
65665;SDS011;52365;47.464;18.976;2023-01-31T00:06:12;6.12;;;4.40;;
65665;SDS011;52365;47.464;18.976;2023-01-31T00:06:59;5.45;;;3.87;;
65665;SDS011;52365;47.464;18.976;2023-01-31T00:07:35;6.72;;;4.12;;
65665;SDS011;52365;47.464;18.976;2023-01-31T00:08:11;6.00;;;3.95;;
65665;SDS011;52365;47.464;18.976;2023-01-31T00:08:49;6.68;;;4.37;;
65665;SDS011;52365;47.464;18.976;2023-01-31T00:09:25;5.65;;;3.70;;
65665;SDS011;52365;47.464;18.976;2023-01-31T00:10:02;6.60;;;3.85;;
65665;SDS011;52365;47.464;18.976;2023-01-31T00:10:38;7.35;;;3.72;;
65665;SDS011;52365;47.464;18.976;2023-01-31T00:11:15;5.85;;;3.80;;
65665;SDS011;52365;47.464;18.976;2023-01-31T00:11:52;8.90;;;4.00;;
65665;SDS011;52365;47.464;18.976;2023-01-31T00:12:28;6.00;;;3.60;;
65665;SDS011;52365;47.464;18.976;2023-01-31T00:13:04;6.55;;;3.60;;
65665;SDS011;52365;47.464;18.976;2023-01-31T00:13:40;6.50;;;3.60;;
65665;SDS011;52365;47.464;18.976;2023-01-31T00:14:20;6.57;;;3.67;;
65665;SDS011;52365;47.464;18.976;2023-01-31T00:15:00;5.55;;;3.50;;
65665;SDS011;52365;47.464;18.976;2023-01-31T00:15:36;5.78;;;3.30;;
65665;SDS011;52365;47.464;18.976;2023-01-31T00:16:13;5.35;;;3.47;;
65665;SDS011;52365;47.464;18.976;2023-01-31T00:16:50;5.45;;;3.37;;
65665;SDS011;52365;47.464;18.976;2023-01-31T00:17:26;5.03;;;3.25;;
65665;SDS011;52365;47.464;18.976;2023-01-31T00:18:03;6.03;;;3.42;;
65665;SDS011;52365;47.464;18.976;2023-01-31T00:18:39;4.37;;;3.00;;
65665;SDS011;52365;47.464;18.976;2023-01-31T00:19:15;4.45;;;3.05;;
65665;SDS011;52365;47.464;18.976;2023-01-31T00:19:51;6.37;;;3.30;;
65665;SDS011;52365;47.464;18.976;2023-01-31T00:20:27;5.47;;;3.25;;
65665;SDS011;52365;47.464;18.976;2023-01-31T00:21:10;5.47;;;3.25;;
65665;SDS011;52365;47.464;18.976;2023-01-31T00:21:54;5.05;;;3.33;;
65665;SDS011;52365;47.464;18.976;2023-01-31T00:22:30;5.90;;;3.05;;
65665;SDS011;52365;47.464;18.976;2023-01-31T00:23:06;6.10;;;3.53;;
65665;SDS011;52365;47.464;18.976;2023-01-31T00:23:42;4.20;;;3.15;;
65665;SDS011;52365;47.464;18.976;2023-01-31T00:24:19;5.62;;;3.30;;
65665;SDS011;52365;47.464;18.976;2023-01-31T00:24:55;6.32;;;3.22;;
65665;SDS011;52365;47.464;18.976;2023-01-31T00:25:31;5.15;;;3.10;;
65665;SDS011;52365;47.464;18.976;2023-01-31T00:26:08;5.28;;;2.87;;
65665;SDS011;52365;47.464;18.976;2023-01-31T00:26:55;4.95;;;3.05;;
65665;SDS011;52365;47.464;18.976;2023-01-31T00:27:33;4.78;;;2.87;;
65665;SDS011;52365;47.464;18.976;2023-01-31T00:28:09;5.53;;;2.87;;
65665;SDS011;52365;47.464;18.976;2023-01-31T00:28:46;4.25;;;2.83;;
65665;SDS011;52365;47.464;18.976;2023-01-31T00:29:23;6.00;;;3.10;;
65665;SDS011;52365;47.464;18.976;2023-01-31T00:29:59;5.25;;;2.58;;
65665;SDS011;52365;47.464;18.976;2023-01-31T00:30:35;4.97;;;3.03;;
65665;SDS011;52365;47.464;18.976;2023-01-31T00:31:11;4.18;;;2.75;;
65665;SDS011;52365;47.464;18.976;2023-01-31T00:31:49;4.35;;;2.78;;
65665;SDS011;52365;47.464;18.976;2023-01-31T00:32:25;6.22;;;2.80;;
65665;SDS011;52365;47.464;18.976;2023-01-31T00:33:01;4.37;;;2.80;;
65665;SDS011;52365;47.464;18.976;2023-01-31T00:33:39;4.32;;;2.70;;
65665;SDS011;52365;47.464;18.976;2023-01-31T00:34:16;5.47;;;2.72;;
65665;SDS011;52365;47.464;18.976;2023-01-31T00:34:52;6.00;;;2.83;;
65665;SDS011;52365;47.464;18.976;2023-01-31T00:35:29;5.55;;;2.92;;
65665;SDS011;52365;47.464;18.976;2023-01-31T00:36:06;4.45;;;2.70;;
65665;SDS011;52365;47.464;18.976;2023-01-31T00:36:44;6.50;;;2.58;;
65665;SDS011;52365;47.464;18.976;2023-01-31T00:37:20;3.75;;;2.60;;
65665;SDS011;52365;47.464;18.976;2023-01-31T00:37:56;4.43;;;2.50;;
65665;SDS011;52365;47.464;18.976;2023-01-31T00:38:32;3.85;;;2.65;;
65665;SDS011;52365;47.464;18.976;2023-01-31T00:39:09;4.28;;;2.47;;
65665;SDS011;52365;47.464;18.976;2023-01-31T00:39:45;5.15;;;2.70;;
65665;SDS011;52365;47.464;18.976;2023-01-31T00:40:21;4.47;;;2.60;;
65665;SDS011;52365;47.464;18.976;2023-01-31T00:40:57;5.55;;;2.67;;
65665;SDS011;52365;47.464;18.976;2023-01-31T00:41:34;3.85;;;2.50;;
65665;SDS011;52365;47.464;18.976;2023-01-31T00:42:12;6.00;;;2.78;;
65665;SDS011;52365;47.464;18.976;2023-01-31T00:42:48;4.85;;;2.62;;
65665;SDS011;52365;47.464;18.976;2023-01-31T00:43:24;4.82;;;2.33;;
65665;SDS011;52365;47.464;18.976;2023-01-31T00:44:00;4.43;;;2.58;;
65665;SDS011;52365;47.464;18.976;2023-01-31T00:44:36;4.43;;;2.35;;
65665;SDS011;52365;47.464;18.976;2023-01-31T00:45:12;5.22;;;2.40;;
65665;SDS011;52365;47.464;18.976;2023-01-31T00:45:49;5.35;;;2.60;;
65665;SDS011;52365;47.464;18.976;2023-01-31T00:46:25;4.03;;;2.33;;
65665;SDS011;52365;47.464;18.976;2023-01-31T00:47:01;3.70;;;2.22;;
65665;SDS011;52365;47.464;18.976;2023-01-31T00:47:37;5.43;;;2.45;;
65665;SDS011;52365;47.464;18.976;2023-01-31T00:48:13;3.92;;;2.20;;
65665;SDS011;52365;47.464;18.976;2023-01-31T00:48:50;3.78;;;2.20;;
65665;SDS011;52365;47.464;18.976;2023-01-31T00:49:26;3.83;;;2.30;;
65665;SDS011;52365;47.464;18.976;2023-01-31T00:50:03;4.65;;;2.20;;
65665;SDS011;52365;47.464;18.976;2023-01-31T00:50:40;3.50;;;2.20;;
65665;SDS011;52365;47.464;18.976;2023-01-31T00:51:16;4.47;;;2.37;;
65665;SDS011;52365;47.464;18.976;2023-01-31T00:51:52;3.42;;;2.03;;
65665;SDS011;52365;47.464;18.976;2023-01-31T00:52:28;4.15;;;2.20;;
65665;SDS011;52365;47.464;18.976;2023-01-31T00:53:04;4.00;;;2.00;;
65665;SDS011;52365;47.464;18.976;2023-01-31T00:53:41;5.72;;;2.30;;
65665;SDS011;52365;47.464;18.976;2023-01-31T00:54:17;4.50;;;2.20;;
65665;SDS011;52365;47.464;18.976;2023-01-31T00:54:53;3.85;;;2.10;;
65665;SDS011;52365;47.464;18.976;2023-01-31T00:55:29;3.75;;;2.00;;
65665;SDS011;52365;47.464;18.976;2023-01-31T00:56:06;3.80;;;2.00;;
65665;SDS011;52365;47.464;18.976;2023-01-31T00:56:49;4.60;;;2.05;;
65665;SDS011;52365;47.464;18.976;2023-01-31T00:57:25;5.32;;;2.28;;
65665;SDS011;52365;47.464;18.976;2023-01-31T00:58:01;3.42;;;1.92;;
65665;SDS011;52365;47.464;18.976;2023-01-31T00:58:38;4.35;;;2.10;;
65665;SDS011;52365;47.464;18.976;2023-01-31T00:59:14;3.42;;;2.10;;
65665;SDS011;52365;47.464;18.976;2023-01-31T00:59:50;3.92;;;2.00;;
65665;SDS011;52365;47.464;18.976;2023-01-31T01:00:26;4.15;;;1.83;;
65665;SDS011;52365;47.464;18.976;2023-01-31T01:01:09;3.83;;;2.17;;
65665;SDS011;52365;47.464;18.976;2023-01-31T01:02:06;4.55;;;2.20;;
65665;SDS011;52365;47.464;18.976;2023-01-31T01:02:42;3.10;;;1.90;;
65665;SDS011;52365;47.464;18.976;2023-01-31T01:03:18;4.07;;;2.00;;
65665;SDS011;52365;47.464;18.976;2023-01-31T01:03:55;4.65;;;2.05;;
65665;SDS011;52365;47.464;18.976;2023-01-31T01:04:32;4.22;;;1.90;;
65665;SDS011;52365;47.464;18.976;2023-01-31T01:05:08;5.57;;;1.92;;
65665;SDS011;52365;47.464;18.976;2023-01-31T01:05:44;3.65;;;1.92;;
65665;SDS011;52365;47.464;18.976;2023-01-31T01:06:21;5.35;;;1.90;;
65665;SDS011;52365;47.464;18.976;2023-01-31T01:06:57;4.20;;;1.73;;
65665;SDS011;52365;47.464;18.976;2023-01-31T01:07:33;3.83;;;1.87;;
65665;SDS011;52365;47.464;18.976;2023-01-31T01:08:10;4.15;;;1.85;;
65665;SDS011;52365;47.464;18.976;2023-01-31T01:08:46;4.40;;;1.77;;
65665;SDS011;52365;47.464;18.976;2023-01-31T01:09:22;3.95;;;1.95;;
65665;SDS011;52365;47.464;18.976;2023-01-31T01:09:58;4.40;;;1.77;;
65665;SDS011;52365;47.464;18.976;2023-01-31T01:10:35;3.95;;;2.15;;
65665;SDS011;52365;47.464;18.976;2023-01-31T01:11:16;4.47;;;1.95;;
65665;SDS011;52365;47.464;18.976;2023-01-31T01:11:55;3.92;;;1.95;;
65665;SDS011;52365;47.464;18.976;2023-01-31T01:12:31;5.32;;;2.05;;
65665;SDS011;52365;47.464;18.976;2023-01-31T01:13:07;4.55;;;1.50;;
65665;SDS011;52365;47.464;18.976;2023-01-31T01:13:43;4.50;;;2.10;;
65665;SDS011;52365;47.464;18.976;2023-01-31T01:14:20;7.20;;;2.20;;
65665;SDS011;52365;47.464;18.976;2023-01-31T01:14:56;3.62;;;1.67;;
65665;SDS011;52365;47.464;18.976;2023-01-31T01:15:35;4.95;;;1.92;;
65665;SDS011;52365;47.464;18.976;2023-01-31T01:16:14;4.93;;;2.20;;
65665;SDS011;52365;47.464;18.976;2023-01-31T01:16:54;4.50;;;1.90;;
65665;SDS011;52365;47.464;18.976;2023-01-31T01:17:32;4.47;;;2.00;;
65665;SDS011;52365;47.464;18.976;2023-01-31T01:18:09;4.40;;;1.98;;
65665;SDS011;52365;47.464;18.976;2023-01-31T01:18:45;4.12;;;1.77;;
65665;SDS011;52365;47.464;18.976;2023-01-31T01:19:23;3.60;;;1.90;;
65665;SDS011;52365;47.464;18.976;2023-01-31T01:19:59;4.68;;;1.80;;
65665;SDS011;52365;47.464;18.976;2023-01-31T01:20:38;3.12;;;1.58;;
65665;SDS011;52365;47.464;18.976;2023-01-31T01:21:16;4.55;;;2.10;;
65665;SDS011;52365;47.464;18.976;2023-01-31T01:21:57;5.10;;;1.95;;
65665;SDS011;52365;47.464;18.976;2023-01-31T01:22:33;4.50;;;1.90;;
65665;SDS011;52365;47.464;18.976;2023-01-31T01:23:09;4.70;;;1.70;;
65665;SDS011;52365;47.464;18.976;2023-01-31T01:23:45;5.32;;;1.90;;
65665;SDS011;52365;47.464;18.976;2023-01-31T01:24:22;4.68;;;1.85;;
65665;SDS011;52365;47.464;18.976;2023-01-31T01:24:58;4.03;;;1.70;;
65665;SDS011;52365;47.464;18.976;2023-01-31T01:25:41;3.97;;;1.80;;
65665;SDS011;52365;47.464;18.976;2023-01-31T01:26:19;4.22;;;1.90;;
65665;SDS011;52365;47.464;18.976;2023-01-31T01:26:57;4.07;;;1.73;;
65665;SDS011;52365;47.464;18.976;2023-01-31T01:27:34;3.85;;;1.95;;
65665;SDS011;52365;47.464;18.976;2023-01-31T01:28:10;4.43;;;1.90;;
65665;SDS011;52365;47.464;18.976;2023-01-31T01:28:47;4.43;;;1.85;;
65665;SDS011;52365;47.464;18.976;2023-01-31T01:29:24;3.67;;;1.80;;
65665;SDS011;52365;47.464;18.976;2023-01-31T01:30:00;3.55;;;1.70;;
65665;SDS011;52365;47.464;18.976;2023-01-31T01:30:37;3.85;;;1.80;;
65665;SDS011;52365;47.464;18.976;2023-01-31T01:31:14;4.70;;;2.08;;
65665;SDS011;52365;47.464;18.976;2023-01-31T01:31:51;3.28;;;1.75;;
65665;SDS011;52365;47.464;18.976;2023-01-31T01:32:27;4.57;;;2.00;;
65665;SDS011;52365;47.464;18.976;2023-01-31T01:33:03;3.90;;;1.67;;
65665;SDS011;52365;47.464;18.976;2023-01-31T01:33:39;4.07;;;1.80;;
65665;SDS011;52365;47.464;18.976;2023-01-31T01:34:15;3.55;;;1.73;;
65665;SDS011;52365;47.464;18.976;2023-01-31T01:34:52;4.40;;;1.95;;
65665;SDS011;52365;47.464;18.976;2023-01-31T01:35:28;3.95;;;1.87;;
65665;SDS011;52365;47.464;18.976;2023-01-31T01:36:06;3.97;;;1.80;;
65665;SDS011;52365;47.464;18.976;2023-01-31T01:36:44;4.68;;;1.80;;
65665;SDS011;52365;47.464;18.976;2023-01-31T01:37:20;3.20;;;1.80;;
65665;SDS011;52365;47.464;18.976;2023-01-31T01:37:56;3.30;;;1.70;;
65665;SDS011;52365;47.464;18.976;2023-01-31T01:38:38;4.65;;;1.87;;
65665;SDS011;52365;47.464;18.976;2023-01-31T01:39:16;4.30;;;1.67;;
65665;SDS011;52365;47.464;18.976;2023-01-31T01:39:52;3.60;;;1.60;;
65665;SDS011;52365;47.464;18.976;2023-01-31T01:40:33;3.60;;;1.67;;
65665;SDS011;52365;47.464;18.976;2023-01-31T01:41:11;4.07;;;1.70;;
65665;SDS011;52365;47.464;18.976;2023-01-31T01:41:48;3.95;;;1.60;;
65665;SDS011;52365;47.464;18.976;2023-01-31T01:42:26;3.67;;;1.80;;
65665;SDS011;52365;47.464;18.976;2023-01-31T01:43:02;3.65;;;1.70;;
65665;SDS011;52365;47.464;18.976;2023-01-31T01:45:23;4.00;;;1.67;;
65665;SDS011;52365;47.464;18.976;2023-01-31T01:45:59;4.37;;;1.60;;
65665;SDS011;52365;47.464;18.976;2023-01-31T01:46:37;5.12;;;1.80;;
65665;SDS011;52365;47.464;18.976;2023-01-31T01:47:20;4.90;;;1.90;;
65665;SDS011;52365;47.464;18.976;2023-01-31T01:48:15;4.25;;;1.67;;
65665;SDS011;52365;47.464;18.976;2023-01-31T01:48:57;4.70;;;1.85;;
65665;SDS011;52365;47.464;18.976;2023-01-31T01:49:55;5.07;;;1.75;;
65665;SDS011;52365;47.464;18.976;2023-01-31T01:50:41;3.95;;;1.87;;
65665;SDS011;52365;47.464;18.976;2023-01-31T01:51:22;3.28;;;1.40;;
65665;SDS011;52365;47.464;18.976;2023-01-31T01:52:01;4.22;;;1.70;;
65665;SDS011;52365;47.464;18.976;2023-01-31T01:53:52;3.67;;;1.60;;
65665;SDS011;52365;47.464;18.976;2023-01-31T01:54:40;4.25;;;1.70;;
65665;SDS011;52365;47.464;18.976;2023-01-31T01:55:58;4.35;;;1.60;;
65665;SDS011;52365;47.464;18.976;2023-01-31T01:56:41;5.07;;;1.83;;
65665;SDS011;52365;47.464;18.976;2023-01-31T01:57:23;5.05;;;1.83;;
65665;SDS011;52365;47.464;18.976;2023-01-31T01:58:09;4.78;;;1.73;;
65665;SDS011;52365;47.464;18.976;2023-01-31T01:59:02;3.60;;;1.60;;
65665;SDS011;52365;47.464;18.976;2023-01-31T01:59:54;3.78;;;1.62;;
65665;SDS011;52365;47.464;18.976;2023-01-31T02:00:48;4.18;;;1.60;;
65665;SDS011;52365;47.464;18.976;2023-01-31T02:01:25;5.90;;;1.80;;
65665;SDS011;52365;47.464;18.976;2023-01-31T02:02:06;4.40;;;1.55;;
65665;SDS011;52365;47.464;18.976;2023-01-31T02:02:42;4.82;;;1.62;;
65665;SDS011;52365;47.464;18.976;2023-01-31T02:03:20;4.35;;;1.40;;
65665;SDS011;52365;47.464;18.976;2023-01-31T02:03:56;3.53;;;1.58;;
65665;SDS011;52365;47.464;18.976;2023-01-31T02:04:36;4.03;;;1.30;;
65665;SDS011;52365;47.464;18.976;2023-01-31T02:05:16;4.45;;;1.60;;
65665;SDS011;52365;47.464;18.976;2023-01-31T02:05:57;3.80;;;1.58;;
65665;SDS011;52365;47.464;18.976;2023-01-31T02:06:36;3.60;;;1.65;;
65665;SDS011;52365;47.464;18.976;2023-01-31T02:07:13;2.95;;;1.40;;
65665;SDS011;52365;47.464;18.976;2023-01-31T02:07:49;3.25;;;1.70;;
65665;SDS011;52365;47.464;18.976;2023-01-31T02:08:26;3.58;;;1.40;;
65665;SDS011;52365;47.464;18.976;2023-01-31T02:09:06;4.47;;;1.62;;
65665;SDS011;52365;47.464;18.976;2023-01-31T02:09:48;3.92;;;1.50;;
65665;SDS011;52365;47.464;18.976;2023-01-31T02:11:25;4.28;;;1.60;;
65665;SDS011;52365;47.464;18.976;2023-01-31T02:12:04;3.60;;;1.40;;
65665;SDS011;52365;47.464;18.976;2023-01-31T02:12:40;3.85;;;1.60;;
65665;SDS011;52365;47.464;18.976;2023-01-31T02:13:17;5.20;;;1.62;;
65665;SDS011;52365;47.464;18.976;2023-01-31T02:13:59;4.10;;;1.45;;
65665;SDS011;52365;47.464;18.976;2023-01-31T02:14:37;4.82;;;1.60;;
65665;SDS011;52365;47.464;18.976;2023-01-31T02:15:14;4.10;;;1.50;;
65665;SDS011;52365;47.464;18.976;2023-01-31T02:15:50;5.68;;;1.60;;
65665;SDS011;52365;47.464;18.976;2023-01-31T02:16:27;4.57;;;1.50;;
65665;SDS011;52365;47.464;18.976;2023-01-31T02:17:03;4.53;;;1.77;;
65665;SDS011;52365;47.464;18.976;2023-01-31T02:17:39;5.28;;;1.50;;
65665;SDS011;52365;47.464;18.976;2023-01-31T02:18:15;5.23;;;1.47;;
65665;SDS011;52365;47.464;18.976;2023-01-31T02:18:53;3.40;;;1.50;;
65665;SDS011;52365;47.464;18.976;2023-01-31T02:21:03;4.10;;;1.42;;
65665;SDS011;52365;47.464;18.976;2023-01-31T02:21:58;4.07;;;1.40;;
65665;SDS011;52365;47.464;18.976;2023-01-31T02:30:40;4.47;;;1.35;;
65665;SDS011;52365;47.464;18.976;2023-01-31T02:34:53;4.12;;;1.33;;
65665;SDS011;52365;47.464;18.976;2023-01-31T02:39:42;3.25;;;1.35;;
65665;SDS011;52365;47.464;18.976;2023-01-31T02:42:06;4.37;;;1.40;;
65665;SDS011;52365;47.464;18.976;2023-01-31T02:45:03;5.82;;;1.65;;
65665;SDS011;52365;47.464;18.976;2023-01-31T02:46:23;3.72;;;1.33;;
65665;SDS011;52365;47.464;18.976;2023-01-31T02:49:06;4.62;;;1.60;;
65665;SDS011;52365;47.464;18.976;2023-01-31T02:50:13;7.03;;;1.85;;
65665;SDS011;52365;47.464;18.976;2023-01-31T02:50:59;4.00;;;1.30;;
65665;SDS011;52365;47.464;18.976;2023-01-31T02:51:49;3.67;;;1.20;;
65665;SDS011;52365;47.464;18.976;2023-01-31T02:52:48;4.55;;;1.40;;
65665;SDS011;52365;47.464;18.976;2023-01-31T02:53:33;4.28;;;1.45;;
65665;SDS011;52365;47.464;18.976;2023-01-31T02:54:22;4.65;;;1.70;;
65665;SDS011;52365;47.464;18.976;2023-01-31T02:55:25;3.75;;;1.40;;
65665;SDS011;52365;47.464;18.976;2023-01-31T02:56:26;4.90;;;1.35;;
65665;SDS011;52365;47.464;18.976;2023-01-31T02:57:06;3.67;;;1.35;;
65665;SDS011;52365;47.464;18.976;2023-01-31T02:57:42;6.18;;;1.48;;
65665;SDS011;52365;47.464;18.976;2023-01-31T02:58:19;4.03;;;1.40;;
65665;SDS011;52365;47.464;18.976;2023-01-31T02:59:06;4.80;;;1.40;;
65665;SDS011;52365;47.464;18.976;2023-01-31T02:59:46;6.47;;;1.70;;
65665;SDS011;52365;47.464;18.976;2023-01-31T03:00:23;4.50;;;1.50;;
65665;SDS011;52365;47.464;18.976;2023-01-31T03:01:02;5.20;;;1.73;;
65665;SDS011;52365;47.464;18.976;2023-01-31T03:01:41;4.47;;;1.30;;
65665;SDS011;52365;47.464;18.976;2023-01-31T03:02:23;5.60;;;1.50;;
65665;SDS011;52365;47.464;18.976;2023-01-31T03:03:03;5.30;;;1.42;;
65665;SDS011;52365;47.464;18.976;2023-01-31T03:03:42;5.72;;;1.70;;
65665;SDS011;52365;47.464;18.976;2023-01-31T03:04:18;4.70;;;1.45;;
65665;SDS011;52365;47.464;18.976;2023-01-31T03:04:54;5.28;;;1.50;;
65665;SDS011;52365;47.464;18.976;2023-01-31T03:05:30;4.03;;;1.50;;
65665;SDS011;52365;47.464;18.976;2023-01-31T03:07:12;4.65;;;1.45;;
65665;SDS011;52365;47.464;18.976;2023-01-31T03:07:52;5.00;;;1.50;;
65665;SDS011;52365;47.464;18.976;2023-01-31T03:08:31;5.55;;;1.55;;
65665;SDS011;52365;47.464;18.976;2023-01-31T03:09:09;3.70;;;1.40;;
65665;SDS011;52365;47.464;18.976;2023-01-31T03:10:59;5.30;;;1.60;;
65665;SDS011;52365;47.464;18.976;2023-01-31T03:11:38;5.20;;;1.50;;
65665;SDS011;52365;47.464;18.976;2023-01-31T03:15:27;3.42;;;1.30;;
65665;SDS011;52365;47.464;18.976;2023-01-31T03:16:27;4.35;;;1.42;;
65665;SDS011;52365;47.464;18.976;2023-01-31T03:18:36;4.63;;;1.27;;
65665;SDS011;52365;47.464;18.976;2023-01-31T03:19:37;5.00;;;1.40;;
65665;SDS011;52365;47.464;18.976;2023-01-31T03:20:37;5.57;;;1.33;;
65665;SDS011;52365;47.464;18.976;2023-01-31T03:21:26;4.50;;;1.50;;
65665;SDS011;52365;47.464;18.976;2023-01-31T03:22:15;3.47;;;1.20;;
65665;SDS011;52365;47.464;18.976;2023-01-31T03:23:03;4.53;;;1.33;;
65665;SDS011;52365;47.464;18.976;2023-01-31T03:23:46;6.32;;;1.70;;
65665;SDS011;52365;47.464;18.976;2023-01-31T03:24:26;5.97;;;1.50;;
65665;SDS011;52365;47.464;18.976;2023-01-31T03:25:05;5.25;;;1.77;;
65665;SDS011;52365;47.464;18.976;2023-01-31T03:25:44;3.40;;;1.23;;
65665;SDS011;52365;47.464;18.976;2023-01-31T03:26:23;4.32;;;1.33;;
65665;SDS011;52365;47.464;18.976;2023-01-31T03:27:00;5.07;;;1.37;;
65665;SDS011;52365;47.464;18.976;2023-01-31T03:27:37;4.35;;;1.40;;
65665;SDS011;52365;47.464;18.976;2023-01-31T03:28:21;3.65;;;1.40;;
65665;SDS011;52365;47.464;18.976;2023-01-31T03:29:03;5.45;;;1.23;;
65665;SDS011;52365;47.464;18.976;2023-01-31T03:29:41;5.07;;;1.40;;
65665;SDS011;52365;47.464;18.976;2023-01-31T03:30:20;4.20;;;1.30;;
65665;SDS011;52365;47.464;18.976;2023-01-31T03:31:57;4.47;;;1.50;;
65665;SDS011;52365;47.464;18.976;2023-01-31T03:32:49;4.78;;;1.30;;
65665;SDS011;52365;47.464;18.976;2023-01-31T03:33:41;5.45;;;1.30;;
65665;SDS011;52365;47.464;18.976;2023-01-31T03:34:20;4.60;;;1.50;;
65665;SDS011;52365;47.464;18.976;2023-01-31T03:34:57;6.00;;;1.40;;
65665;SDS011;52365;47.464;18.976;2023-01-31T03:35:33;5.55;;;1.40;;
65665;SDS011;52365;47.464;18.976;2023-01-31T03:36:23;5.70;;;1.70;;
65665;SDS011;52365;47.464;18.976;2023-01-31T03:37:10;5.75;;;1.55;;
65665;SDS011;52365;47.464;18.976;2023-01-31T03:37:56;5.32;;;1.50;;
65665;SDS011;52365;47.464;18.976;2023-01-31T03:38:43;3.90;;;1.20;;
65665;SDS011;52365;47.464;18.976;2023-01-31T03:39:37;4.37;;;1.35;;
65665;SDS011;52365;47.464;18.976;2023-01-31T03:40:26;4.87;;;1.40;;
65665;SDS011;52365;47.464;18.976;2023-01-31T03:41:14;6.55;;;1.50;;
65665;SDS011;52365;47.464;18.976;2023-01-31T03:42:16;5.05;;;1.40;;
65665;SDS011;52365;47.464;18.976;2023-01-31T03:43:13;5.70;;;1.65;;
65665;SDS011;52365;47.464;18.976;2023-01-31T03:44:05;4.65;;;1.50;;
65665;SDS011;52365;47.464;18.976;2023-01-31T03:45:06;6.28;;;1.58;;
65665;SDS011;52365;47.464;18.976;2023-01-31T03:46:33;5.78;;;1.50;;
65665;SDS011;52365;47.464;18.976;2023-01-31T03:46:54;4.45;;;1.60;;
65665;SDS011;52365;47.464;18.976;2023-01-31T03:47:41;4.45;;;1.52;;
65665;SDS011;52365;47.464;18.976;2023-01-31T03:48:21;4.78;;;1.37;;
65665;SDS011;52365;47.464;18.976;2023-01-31T03:49:01;3.53;;;1.40;;
65665;SDS011;52365;47.464;18.976;2023-01-31T03:49:44;7.30;;;1.70;;
65665;SDS011;52365;47.464;18.976;2023-01-31T03:50:27;4.93;;;1.50;;
65665;SDS011;52365;47.464;18.976;2023-01-31T03:51:07;4.60;;;1.37;;
65665;SDS011;52365;47.464;18.976;2023-01-31T03:51:49;4.03;;;1.27;;
65665;SDS011;52365;47.464;18.976;2023-01-31T03:52:30;5.55;;;1.30;;
65665;SDS011;52365;47.464;18.976;2023-01-31T03:53:16;3.80;;;1.10;;
65665;SDS011;52365;47.464;18.976;2023-01-31T03:54:05;4.78;;;1.48;;
65665;SDS011;52365;47.464;18.976;2023-01-31T03:54:45;4.47;;;1.50;;
65665;SDS011;52365;47.464;18.976;2023-01-31T03:55:30;4.50;;;1.70;;
65665;SDS011;52365;47.464;18.976;2023-01-31T03:56:25;3.37;;;1.20;;
65665;SDS011;52365;47.464;18.976;2023-01-31T03:57:14;4.62;;;1.42;;
65665;SDS011;52365;47.464;18.976;2023-01-31T03:57:55;4.75;;;1.65;;
65665;SDS011;52365;47.464;18.976;2023-01-31T03:58:34;4.93;;;1.35;;
65665;SDS011;52365;47.464;18.976;2023-01-31T03:59:17;4.07;;;1.40;;
65665;SDS011;52365;47.464;18.976;2023-01-31T03:59:57;4.15;;;1.52;;
65665;SDS011;52365;47.464;18.976;2023-01-31T04:00:35;5.80;;;1.42;;
65665;SDS011;52365;47.464;18.976;2023-01-31T04:01:16;4.28;;;1.60;;
65665;SDS011;52365;47.464;18.976;2023-01-31T04:01:54;4.68;;;1.40;;
65665;SDS011;52365;47.464;18.976;2023-01-31T04:02:35;3.90;;;1.20;;
65665;SDS011;52365;47.464;18.976;2023-01-31T04:03:17;3.42;;;1.45;;
65665;SDS011;52365;47.464;18.976;2023-01-31T04:04:00;5.10;;;1.50;;
65665;SDS011;52365;47.464;18.976;2023-01-31T04:05:05;4.78;;;1.37;;
65665;SDS011;52365;47.464;18.976;2023-01-31T04:05:51;3.30;;;1.40;;
65665;SDS011;52365;47.464;18.976;2023-01-31T04:06:28;4.28;;;1.50;;
65665;SDS011;52365;47.464;18.976;2023-01-31T04:07:04;5.55;;;1.60;;
65665;SDS011;52365;47.464;18.976;2023-01-31T04:07:41;6.15;;;1.58;;
65665;SDS011;52365;47.464;18.976;2023-01-31T04:08:17;5.00;;;1.52;;
65665;SDS011;52365;47.464;18.976;2023-01-31T04:08:53;4.18;;;1.40;;
65665;SDS011;52365;47.464;18.976;2023-01-31T04:09:29;5.57;;;1.50;;
65665;SDS011;52365;47.464;18.976;2023-01-31T04:10:07;3.95;;;1.37;;
65665;SDS011;52365;47.464;18.976;2023-01-31T04:10:49;5.35;;;1.50;;
65665;SDS011;52365;47.464;18.976;2023-01-31T04:11:26;4.12;;;1.35;;
65665;SDS011;52365;47.464;18.976;2023-01-31T04:12:02;5.20;;;1.40;;
65665;SDS011;52365;47.464;18.976;2023-01-31T04:12:39;4.28;;;1.30;;
65665;SDS011;52365;47.464;18.976;2023-01-31T04:13:15;4.28;;;1.25;;
65665;SDS011;52365;47.464;18.976;2023-01-31T04:13:52;4.60;;;1.62;;
65665;SDS011;52365;47.464;18.976;2023-01-31T04:14:28;3.95;;;1.50;;
65665;SDS011;52365;47.464;18.976;2023-01-31T04:15:04;4.70;;;1.45;;
65665;SDS011;52365;47.464;18.976;2023-01-31T04:15:41;3.20;;;1.30;;
65665;SDS011;52365;47.464;18.976;2023-01-31T04:16:17;3.47;;;1.30;;
65665;SDS011;52365;47.464;18.976;2023-01-31T04:16:53;3.28;;;1.33;;
65665;SDS011;52365;47.464;18.976;2023-01-31T04:17:29;4.47;;;1.30;;
65665;SDS011;52365;47.464;18.976;2023-01-31T04:18:05;4.85;;;1.40;;
65665;SDS011;52365;47.464;18.976;2023-01-31T04:18:41;6.00;;;1.50;;
65665;SDS011;52365;47.464;18.976;2023-01-31T04:19:18;4.85;;;1.30;;
65665;SDS011;52365;47.464;18.976;2023-01-31T04:19:54;3.30;;;1.20;;
65665;SDS011;52365;47.464;18.976;2023-01-31T04:20:30;4.12;;;1.25;;
65665;SDS011;52365;47.464;18.976;2023-01-31T04:21:06;3.35;;;1.30;;
65665;SDS011;52365;47.464;18.976;2023-01-31T04:21:42;5.57;;;1.58;;
65665;SDS011;52365;47.464;18.976;2023-01-31T04:22:18;4.40;;;1.37;;
65665;SDS011;52365;47.464;18.976;2023-01-31T04:22:54;4.45;;;1.65;;
65665;SDS011;52365;47.464;18.976;2023-01-31T04:23:30;4.47;;;1.35;;
65665;SDS011;52365;47.464;18.976;2023-01-31T04:24:06;4.28;;;1.40;;
65665;SDS011;52365;47.464;18.976;2023-01-31T04:24:44;3.80;;;1.17;;
65665;SDS011;52365;47.464;18.976;2023-01-31T04:25:20;4.03;;;1.30;;
65665;SDS011;52365;47.464;18.976;2023-01-31T04:25:56;3.95;;;1.30;;
65665;SDS011;52365;47.464;18.976;2023-01-31T04:26:32;3.28;;;1.10;;
65665;SDS011;52365;47.464;18.976;2023-01-31T04:27:08;4.85;;;1.25;;
65665;SDS011;52365;47.464;18.976;2023-01-31T04:27:44;4.07;;;1.40;;
65665;SDS011;52365;47.464;18.976;2023-01-31T04:28:21;3.75;;;1.40;;
65665;SDS011;52365;47.464;18.976;2023-01-31T04:28:57;3.53;;;1.10;;
65665;SDS011;52365;47.464;18.976;2023-01-31T04:29:33;3.97;;;1.20;;
65665;SDS011;52365;47.464;18.976;2023-01-31T04:30:09;3.17;;;1.30;;
65665;SDS011;52365;47.464;18.976;2023-01-31T04:30:50;4.82;;;1.40;;
65665;SDS011;52365;47.464;18.976;2023-01-31T04:31:27;3.50;;;1.15;;
65665;SDS011;52365;47.464;18.976;2023-01-31T04:32:04;4.80;;;1.30;;